Time;durP1;ratioP1;P1;durP2;ratioP2;P2;SDS_P1;SDS_P2;PMS_P1;PMS_P2;Temp;Humidity;BMP_temperature;BMP_pressure;BME280_temperature;BME280_humidity;BME280_pressure;Samples;Min_cycle;Max_cycle;Signal;HPM_P1;HPM_P2
2021/12/05 00:22:38;;;;;;;32.83;16.48;;;;;;;2.59;100.00;98296.38;5055327;28;20043;-88
2021/12/05 00:25:07;;;;;;;33.10;16.27;;;;;;;2.61;100.00;98299.81;5038027;28;20017;-87
2021/12/05 00:28:35;;;;;;;36.17;16.73;;;;;;;2.59;100.00;98297.25;5036840;28;20021;-88
2021/12/05 00:32:54;;;;;;;28.73;17.10;;;;;;;2.61;100.00;98305.09;5054830;28;20033;-88
2021/12/05 00:36:11;;;;;;;40.78;17.55;;;;;;;2.66;100.00;98308.44;5036189;28;20057;-87
2021/12/05 00:39:09;;;;;;;31.98;15.98;;;;;;;2.61;100.00;98315.63;5054430;28;20497;-86
2021/12/05 00:49:27;;;;;;;32.25;16.20;;;;;;;2.73;100.00;98328.44;5054086;28;20052;-87
2021/12/05 01:00:08;;;;;;;39.22;19.75;;;;;;;2.67;100.00;98341.81;5054556;28;20028;-87
2021/12/05 01:02:48;;;;;;;38.90;20.13;;;;;;;2.67;100.00;98341.81;5036278;28;20096;-86
2021/12/05 01:13:33;;;;;;;41.33;20.83;;;;;;;2.71;100.00;98353.13;5054227;28;20055;-87
2021/12/05 01:16:02;;;;;;;40.10;21.48;;;;;;;2.59;100.00;98351.69;5036833;28;20104;-87
2021/12/05 01:18:28;;;;;;;43.20;22.33;;;;;;;2.60;100.00;98356.94;5036284;28;20021;-90
2021/12/05 01:21:05;;;;;;;42.08;22.42;;;;;;;2.72;100.00;98360.13;5036324;28;20028;-88
2021/12/05 01:23:45;;;;;;;46.88;21.52;;;;;;;2.64;100.00;98365.63;5036688;28;20044;-87
2021/12/05 01:26:19;;;;;;;41.78;22.05;;;;;;;2.65;100.00;98364.72;5035731;28;20583;-88
2021/12/05 01:29:03;;;;;;;46.53;22.20;;;;;;;2.66;100.00;98366.44;5035903;28;20035;-88
2021/12/05 01:32:21;;;;;;;42.38;21.23;;;;;;;2.67;100.00;98360.25;5036702;28;20025;-87
2021/12/05 01:48:08;;;;;;;;;;;;;;;2.75;100.00;98386.41;4973777;28;20070;-88
2021/12/05 01:58:52;;;;;;;37.92;19.77;;;;;;;2.64;100.00;98384.94;5053116;28;20101;-88
2021/12/05 02:15:37;;;;;;;38.38;20.27;;;;;;;2.63;100.00;98387.63;5053523;28;20462;-87
2021/12/05 02:32:23;;;;;;;29.83;16.70;;;;;;;2.75;100.00;98376.72;5057435;28;20035;-89
2021/12/05 02:35:13;;;;;;;31.65;16.52;;;;;;;2.70;100.00;98373.34;5055627;28;20025;-88
2021/12/05 02:43:09;;;;;;;27.25;14.02;;;;;;;2.65;100.00;98378.78;5057254;28;20405;-82
2021/12/05 02:45:39;;;;;;;29.80;14.95;;;;;;;2.69;100.00;98382.16;5041045;28;20029;-85
2021/12/05 02:48:07;;;;;;;28.13;14.30;;;;;;;2.65;100.00;98383.16;5039974;28;20451;-86
2021/12/05 02:50:34;;;;;;;26.85;14.32;;;;;;;2.75;100.00;98384.63;5039586;28;20097;-86
2021/12/05 02:55:49;;;;;;;25.08;13.57;;;;;;;2.76;100.00;98382.84;5047437;28;20033;-85
2021/12/05 02:58:40;;;;;;;26.20;12.32;;;;;;;2.58;100.00;98390.34;5039442;28;20024;-85
2021/12/05 03:01:18;;;;;;;24.55;13.23;;;;;;;2.56;100.00;98389.53;5038682;28;20044;-87
2021/12/05 03:03:45;;;;;;;25.48;12.45;;;;;;;2.62;100.00;98399.06;5038413;28;20013;-88
2021/12/05 03:06:19;;;;;;;27.23;12.25;;;;;;;2.52;100.00;98398.44;5039171;28;20147;-87
2021/12/05 03:08:48;;;;;;;21.98;9.95;;;;;;;2.60;100.00;98392.97;5038419;28;20021;-88
2021/12/05 03:11:14;;;;;;;19.90;9.88;;;;;;;2.61;100.00;98390.28;5038129;28;20397;-86
2021/12/05 03:13:41;;;;;;;19.73;9.18;;;;;;;2.61;100.00;98395.56;5038685;28;20509;-85
2021/12/05 03:16:09;;;;;;;20.33;9.30;;;;;;;2.54;100.00;98399.28;5039177;28;20025;-87
2021/12/05 03:18:35;;;;;;;22.58;8.75;;;;;;;2.56;100.00;98403.59;5038508;28;20078;-88
2021/12/05 03:21:03;;;;;;;16.80;7.80;;;;;;;2.47;100.00;98403.84;5039328;28;20025;-86
2021/12/05 03:23:29;;;;;;;19.48;7.63;;;;;;;2.61;100.00;98403.47;5039191;28;20021;-88
2021/12/05 03:25:55;;;;;;;20.17;7.43;;;;;;;2.43;100.00;98396.91;5039575;28;20464;-87
2021/12/05 03:28:24;;;;;;;16.98;7.15;;;;;;;2.53;100.00;98405.44;5039055;28;20055;-88
2021/12/05 03:30:50;;;;;;;13.60;6.30;;;;;;;2.52;100.00;98401.09;5039392;28;20044;-87
2021/12/05 03:33:15;;;;;;;14.05;6.28;;;;;;;2.41;100.00;98398.75;5037980;28;20485;-87
2021/12/05 03:35:41;;;;;;;16.48;7.20;;;;;;;2.47;100.00;98398.59;5038996;28;20025;-87
2021/12/05 03:38:07;;;;;;;16.35;6.78;;;;;;;2.36;100.00;98400.63;5039046;28;20036;-87
2021/12/05 03:40:33;;;;;;;18.23;7.00;;;;;;;2.35;100.00;98394.50;5037563;28;20028;-87
2021/12/05 03:43:03;;;;;;;14.63;6.35;;;;;;;2.33;100.00;98407.72;5038530;28;20094;-86
2021/12/05 03:45:38;;;;;;;20.48;7.53;;;;;;;2.36;100.00;98403.25;5055893;28;20031;-86
2021/12/05 03:48:05;;;;;;;16.83;7.10;;;;;;;2.30;100.00;98404.28;5037380;28;20029;-86
2021/12/05 03:50:35;;;;;;;17.42;7.60;;;;;;;2.22;100.00;98409.75;5037208;28;20033;-88
2021/12/05 03:53:02;;;;;;;20.27;8.50;;;;;;;2.21;100.00;98408.03;5036978;28;20497;-87
2021/12/05 03:55:28;;;;;;;18.85;8.18;;;;;;;2.21;100.00;98418.56;5037476;28;20521;-87
2021/12/05 03:57:54;;;;;;;22.77;7.55;;;;;;;2.27;100.00;98418.41;5036988;28;20029;-86
2021/12/05 04:00:26;;;;;;;24.92;8.38;;;;;;;2.30;100.00;98426.22;5037391;28;20021;-87
2021/12/05 04:02:57;;;;;;;20.90;8.32;;;;;;;2.29;100.00;98426.28;5037603;28;20100;-87
2021/12/05 04:05:24;;;;;;;23.80;9.07;;;;;;;2.26;100.00;98427.22;5036886;28;20028;-88
2021/12/05 04:07:49;;;;;;;21.52;8.63;;;;;;;2.37;100.00;98429.56;5036771;28;20474;-87
2021/12/05 04:10:15;;;;;;;20.48;9.00;;;;;;;2.23;100.00;98440.47;5036822;28;20024;-86
2021/12/05 04:12:44;;;;;;;18.80;7.07;;;;;;;2.19;100.00;98446.72;5036697;28;20075;-89
2021/12/05 04:15:11;;;;;;;19.45;6.80;;;;;;;2.22;100.00;98444.88;5037554;28;20053;-89
2021/12/05 04:17:39;;;;;;;15.88;6.25;;;;;;;2.24;100.00;98444.84;5037421;28;20478;-87
2021/12/05 04:20:11;;;;;;;18.60;6.47;;;;;;;2.22;100.00;98446.63;5036667;28;20032;-88
2021/12/05 04:22:36;;;;;;;16.65;6.78;;;;;;;2.18;100.00;98445.84;5037027;28;20031;-89
2021/12/05 04:25:07;;;;;;;15.52;6.00;;;;;;;2.14;100.00;98456.50;5036497;28;20017;-88
2021/12/05 04:27:33;;;;;;;12.38;5.72;;;;;;;2.22;100.00;98449.25;5036767;28;20029;-88
2021/12/05 04:29:58;;;;;;;13.07;4.97;;;;;;;2.15;100.00;98455.59;5036480;28;20459;-88
2021/12/05 04:32:24;;;;;;;11.00;5.18;;;;;;;2.12;100.00;98452.13;5036346;28;20032;-87
2021/12/05 04:34:49;;;;;;;15.40;4.97;;;;;;;2.19;100.00;98457.25;5037070;28;20081;-87
2021/12/05 04:37:14;;;;;;;16.65;5.13;;;;;;;2.21;100.00;98458.09;5036454;28;20029;-86
2021/12/05 04:39:40;;;;;;;12.60;4.72;;;;;;;2.14;100.00;98459.16;5037466;28;20033;-85
2021/12/05 04:42:05;;;;;;;16.42;4.55;;;;;;;2.24;100.00;98471.19;5056590;28;20025;-85
2021/12/05 04:44:32;;;;;;;16.05;4.55;;;;;;;2.21;100.00;98465.97;5054280;28;20021;-87
2021/12/05 04:47:00;;;;;;;18.70;4.57;;;;;;;2.21;100.00;98460.72;5037265;28;20396;-86
2021/12/05 04:49:26;;;;;;;17.63;4.97;;;;;;;2.21;100.00;98471.25;5036997;28;20071;-86
2021/12/05 04:51:51;;;;;;;18.55;4.75;;;;;;;2.21;100.00;98471.25;5038140;28;20025;-86
2021/12/05 04:54:18;;;;;;;11.48;4.28;;;;;;;2.27;100.00;98468.44;5038589;28;20028;-84
2021/12/05 04:56:45;;;;;;;10.95;4.07;;;;;;;2.25;100.00;98472.88;5039280;28;20029;-85
2021/12/05 04:59:14;;;;;;;10.50;4.20;;;;;;;2.24;100.00;98471.19;5036436;28;20052;-86
2021/12/05 05:01:45;;;;;;;13.10;4.10;;;;;;;2.29;100.00;98474.56;5054825;28;20024;-87
2021/12/05 05:07:14;;;;;;;10.75;3.83;;;;;;;2.24;100.00;98476.44;5036058;28;20071;-84
2021/12/05 05:09:39;;;;;;;;;;;;;;;2.22;100.00;98472.97;5038154;28;20482;-87
2021/12/05 05:12:05;;;;;;;16.15;4.25;;;;;;;2.29;100.00;98479.84;5036512;28;19958;-89
2021/12/05 05:14:30;;;;;;;15.32;4.45;;;;;;;2.24;100.00;98486.97;5035724;28;20028;-87
2021/12/05 05:16:56;;;;;;;13.75;4.28;;;;;;;2.26;100.00;98481.66;5054071;28;20070;-87
2021/12/05 05:19:30;;;;;;;18.35;4.93;;;;;;;2.23;100.00;98490.50;5053603;28;20021;-88
2021/12/05 05:25:10;;;;;;;18.00;4.38;;;;;;;2.18;100.00;98481.84;5053726;28;20447;-89
2021/12/05 05:30:21;;;;;;;14.07;5.03;;;;;;;2.18;100.00;98490.63;5054039;28;20488;-87
2021/12/05 05:43:53;;;;;;;20.50;4.70;;;;;;;2.08;100.00;98500.53;5054351;28;20036;-87
2021/12/05 05:46:23;;;;;;;17.73;5.00;;;;;;;2.06;100.00;98502.31;5036257;28;20032;-85
2021/12/05 05:48:56;;;;;;;14.85;5.50;;;;;;;2.06;100.00;98504.09;5037281;28;20021;-87
2021/12/05 05:51:22;;;;;;;15.38;4.65;;;;;;;2.07;100.00;98505.81;5038218;28;20029;-86
2021/12/05 05:53:48;;;;;;;15.40;5.30;;;;;;;2.09;100.00;98512.75;5053881;28;20029;-87
2021/12/05 05:56:19;;;;;;;15.30;4.78;;;;;;;2.10;100.00;98514.50;5036376;28;20028;-86
2021/12/05 05:59:08;;;;;;;17.35;4.82;;;;;;;2.07;100.00;98506.69;5040654;28;20017;-86
2021/12/05 06:03:59;;;;;;;17.90;5.85;;;;;;;2.06;100.00;98510.19;5061838;28;20410;-86
2021/12/05 06:06:25;;;;;;;15.40;5.72;;;;;;;2.01;100.00;98517.38;5062318;28;20029;-84
2021/12/05 06:08:51;;;;;;;16.65;5.40;;;;;;;1.99;100.00;98512.13;5043133;28;20084;-86
2021/12/05 06:11:17;;;;;;;17.40;5.63;;;;;;;1.98;100.00;98517.44;5043176;28;20063;-86
2021/12/05 06:13:43;;;;;;;15.02;4.88;;;;;;;1.99;100.00;98527.06;5051172;28;20030;-86
2021/12/05 06:16:10;;;;;;;16.50;5.07;;;;;;;2.00;100.00;98515.63;5071445;28;20124;-87
2021/12/05 06:18:36;;;;;;;18.13;5.07;;;;;;;1.96;100.00;98520.09;5054881;28;20025;-86
2021/12/05 06:21:02;;;;;;;19.33;4.95;;;;;;;1.94;100.00;98521.03;5072035;28;20029;-86
2021/12/05 06:23:28;;;;;;;20.17;6.47;;;;;;;1.99;100.00;98519.16;5052600;28;20077;-86
2021/12/05 06:25:54;;;;;;;21.65;6.95;;;;;;;1.95;100.00;98528.91;5066297;28;20359;-86
2021/12/05 06:28:31;;;;;;;14.60;5.30;;;;;;;1.98;100.00;98527.97;5064418;28;20025;-87
2021/12/05 06:39:19;;;;;;;18.20;5.38;;;;;;;2.08;100.00;98553.19;5063534;28;20108;-86
2021/12/05 06:41:55;;;;;;;15.13;5.28;;;;;;;2.10;100.00;98551.38;5064779;28;20025;-86
2021/12/05 06:47:08;;;;;;;16.15;5.63;;;;;;;2.03;100.00;98568.22;5062132;28;20035;-85
2021/12/05 06:49:33;;;;;;;14.25;5.30;;;;;;;2.09;100.00;98562.81;5039550;28;20020;-84
2021/12/05 06:51:59;;;;;;;16.55;6.10;;;;;;;2.11;100.00;98568.03;5042908;28;20071;-84
2021/12/05 06:54:24;;;;;;;15.55;5.82;;;;;;;2.08;100.00;98568.97;5045740;28;20032;-86
2021/12/05 06:56:50;;;;;;;15.70;6.28;;;;;;;2.08;100.00;98571.63;5045017;28;20029;-85
2021/12/05 06:59:16;;;;;;;19.95;6.00;;;;;;;2.08;100.00;98579.53;5060365;28;20025;-86
2021/12/05 07:01:41;;;;;;;16.30;6.88;;;;;;;2.10;100.00;98580.34;5040995;28;20477;-86
2021/12/05 07:04:16;;;;;;;17.33;5.78;;;;;;;2.10;100.00;98572.44;5039383;28;20021;-86
2021/12/05 07:06:43;;;;;;;16.98;5.00;;;;;;;2.06;100.00;98581.28;5039218;28;20520;-86
2021/12/05 07:09:10;;;;;;;17.13;5.80;;;;;;;2.05;100.00;98586.59;5038720;28;20036;-86
2021/12/05 07:12:20;;;;;;;20.25;5.43;;;;;;;2.09;100.00;98583.88;5041885;28;20103;-86
2021/12/05 07:14:45;;;;;;;13.10;5.03;;;;;;;2.10;100.00;98585.59;5056938;28;20021;-86
2021/12/05 07:19:59;;;;;;;11.43;4.80;;;;;;;2.16;100.00;98589.00;5058735;28;20033;-86
2021/12/05 07:22:53;;;;;;;15.60;4.70;;;;;;;2.17;100.00;98588.09;5041596;28;20025;-86
2021/12/05 07:25:30;;;;;;;19.83;5.15;;;;;;;2.16;100.00;98589.88;5056439;28;20110;-85
2021/12/05 07:42:02;;;;;;;15.23;4.60;;;;;;;2.14;100.00;98603.97;5060016;28;20039;-86
2021/12/05 07:44:28;;;;;;;13.95;4.35;;;;;;;2.05;100.00;98613.81;5041512;28;20017;-85
2021/12/05 07:47:01;;;;;;;16.20;4.47;;;;;;;2.06;100.00;98610.25;5040019;28;20029;-83
2021/12/05 07:49:27;;;;;;;11.73;4.38;;;;;;;2.06;100.00;98614.69;5040047;28;20021;-86
2021/12/05 07:51:52;;;;;;;14.55;3.78;;;;;;;2.04;100.00;98632.25;5057930;28;20025;-85
2021/12/05 07:54:31;;;;;;;10.15;4.10;;;;;;;2.06;100.00;98619.94;5039262;28;20025;-85
2021/12/05 07:57:13;;;;;;;12.52;4.57;;;;;;;2.09;100.00;98620.72;5039994;28;20100;-86
2021/12/05 08:16:11;;;;;;;13.98;6.03;;;;;;;2.21;100.00;98645.06;5057409;28;20397;-85
2021/12/05 08:18:37;;;;;;;18.52;7.75;;;;;;;2.11;100.00;98661.06;5040859;28;20017;-85
2021/12/05 08:21:06;;;;;;;14.50;3.97;;;;;;;2.11;100.00;98661.06;5040386;28;20039;-84
2021/12/05 08:23:32;;;;;;;11.50;3.42;;;;;;;2.24;100.00;98668.72;5041208;28;20082;-87
2021/12/05 08:28:50;;;;;;;11.75;4.13;;;;;;;2.18;100.00;98669.72;5058916;28;20039;-85
2021/12/05 08:36:36;;;;;;;17.33;4.13;;;;;;;2.23;100.00;98680.13;5057778;28;20055;-86
2021/12/05 08:41:57;;;;;;;;;;;;;;;2.29;100.00;98687.91;5058487;28;20429;-85
2021/12/05 09:19:45;;;;;;;11.35;3.90;;;;;;;2.68;100.00;98723.09;5056695;28;19919;-86
2021/12/05 10:06:58;;;;;;;11.82;3.25;;;;;;;3.05;99.94;98818.03;5062594;28;19951;-85
2021/12/05 10:18:09;;;;;;;10.13;3.08;;;;;;;3.18;100.00;98827.41;5021185;28;20125;-86
2021/12/05 10:38:11;;;;;;;7.68;2.20;;;;;;;3.47;97.12;98835.53;5060618;28;20501;-86
2021/12/05 10:40:55;;;;;;;9.00;2.60;;;;;;;3.51;96.00;98844.25;5040725;28;20508;-85
2021/12/05 10:43:23;;;;;;;9.07;3.03;;;;;;;3.53;97.38;98845.09;5059501;28;20025;-87
2021/12/05 10:45:52;;;;;;;7.68;2.20;;;;;;;3.63;93.91;98849.25;5041905;28;20032;-86
2021/12/05 10:48:30;;;;;;;8.60;3.20;;;;;;;3.68;94.48;98860.56;5041546;28;20024;-86
2021/12/05 10:51:00;;;;;;;6.32;2.25;;;;;;;3.63;94.14;98859.81;5059474;28;20025;-86
2021/12/05 10:53:44;;;;;;;5.78;2.17;;;;;;;3.65;95.19;98854.47;5045139;28;20052;-85
2021/12/05 10:56:31;;;;;;;8.77;3.30;;;;;;;3.70;95.88;98849.94;5044780;28;20021;-85
2021/12/05 10:59:07;;;;;;;10.27;3.28;;;;;;;3.72;95.59;98852.53;5042661;28;20035;-85
2021/12/05 11:01:35;;;;;;;10.70;2.50;;;;;;;3.71;93.47;98851.66;5045358;28;20024;-84
2021/12/05 11:04:08;;;;;;;8.77;2.80;;;;;;;3.71;94.25;98856.94;5043663;28;20024;-86
2021/12/05 11:06:50;;;;;;;7.10;3.10;;;;;;;3.78;93.70;98857.69;5041204;28;20025;-85
2021/12/05 11:09:23;;;;;;;9.48;3.53;;;;;;;3.83;94.69;98865.47;5039608;28;20033;-84
2021/12/05 11:12:01;;;;;;;9.90;2.43;;;;;;;3.76;93.33;98867.41;5040537;28;20025;-85
2021/12/05 11:15:13;;;;;;;13.27;2.95;;;;;;;3.72;92.57;98860.47;5041858;28;20112;-85
2021/12/05 11:17:41;;;;;;;14.10;3.58;;;;;;;3.72;94.15;98863.97;5042046;28;20027;-87
2021/12/05 11:20:21;;;;;;;10.32;3.97;;;;;;;3.77;94.44;98863.84;5061839;28;20547;-86
2021/12/05 11:22:49;;;;;;;8.30;2.70;;;;;;;3.70;92.31;98863.16;5043559;28;20112;-85
2021/12/05 11:25:22;;;;;;;9.18;2.88;;;;;;;3.66;91.77;98870.25;5041952;28;20470;-86
2021/12/05 11:27:50;;;;;;;9.40;3.15;;;;;;;3.67;92.76;98871.13;5041455;28;20031;-86
2021/12/05 11:30:18;;;;;;;10.30;2.53;;;;;;;3.75;92.57;98879.75;5036001;22;20044;-75
2021/12/05 11:32:54;;;;;;;9.43;2.40;;;;;;;3.75;91.74;98876.22;5035407;28;20089;-76
2021/12/05 11:35:25;;;;;;;8.40;2.80;;;;;;;3.87;92.97;98875.91;5035099;28;20017;-76
2021/12/05 11:38:09;;;;;;;7.07;2.65;;;;;;;3.90;93.48;98878.50;5017367;28;20124;-76
2021/12/05 11:40:55;;;;;;;;;;;;;;;3.85;91.63;98884.78;5017998;28;20036;-77
2021/12/05 11:43:40;;;;;;;12.10;3.53;;;;;;;3.84;91.29;98883.91;5035367;28;19934;-76
2021/12/05 11:46:22;;;;;;;11.80;2.60;;;;;;;3.93;92.47;98881.94;5034526;28;20037;-77
2021/12/05 11:49:02;;;;;;;6.65;2.45;;;;;;;3.97;92.92;98883.63;5017195;28;20394;-76
2021/12/05 11:51:35;;;;;;;14.73;2.80;;;;;;;4.00;93.11;98883.53;5034794;28;20108;-76
2021/12/05 11:54:09;;;;;;;8.32;2.67;;;;;;;4.05;92.29;98889.56;5016872;28;20028;-76
2021/12/05 11:56:34;;;;;;;8.05;2.45;;;;;;;4.04;90.98;98895.75;5035084;28;20056;-76
2021/12/05 11:59:07;;;;;;;7.80;2.60;;;;;;;4.06;91.19;98893.94;5034657;28;20111;-76
2021/12/05 12:01:50;;;;;;;9.20;2.75;;;;;;;4.10;90.83;98892.94;5017002;28;20267;-76
2021/12/05 12:04:19;;;;;;;7.20;3.05;;;;;;;4.12;91.19;98896.41;5034939;28;20045;-76
2021/12/05 12:06:46;;;;;;;8.55;2.80;;;;;;;4.05;90.23;98894.84;5034986;28;20028;-76
2021/12/05 12:09:11;;;;;;;5.40;2.20;;;;;;;4.10;90.87;98900.88;5034525;28;20501;-76
2021/12/05 12:11:37;;;;;;;6.65;2.40;;;;;;;4.12;90.18;98898.22;5034567;28;20029;-76
2021/12/05 12:14:04;;;;;;;10.77;3.20;;;;;;;4.16;91.51;98898.97;5034410;28;20410;-76
2021/12/05 12:16:33;;;;;;;8.98;2.97;;;;;;;4.16;90.87;98896.34;5034666;28;20093;-76
2021/12/05 12:19:01;;;;;;;9.38;2.78;;;;;;;4.21;89.32;98891.81;5034299;28;20061;-76
2021/12/05 12:21:37;;;;;;;7.68;2.80;;;;;;;4.21;90.97;98899.72;5034557;28;20063;-76
2021/12/05 12:24:03;;;;;;;8.43;2.58;;;;;;;4.22;89.58;98896.19;5034506;28;20394;-76
2021/12/05 12:26:28;;;;;;;7.78;2.70;;;;;;;4.22;87.76;98898.84;5016441;28;20024;-76
2021/12/05 12:28:56;;;;;;;7.07;2.22;;;;;;;4.24;88.25;98897.00;5034370;28;20022;-76
2021/12/05 12:31:28;;;;;;;5.50;2.35;;;;;;;4.29;89.02;98900.41;5034035;28;20486;-76
2021/12/05 12:34:00;;;;;;;10.48;5.13;;;;;;;4.25;88.69;98904.88;5034176;28;20025;-76
2021/12/05 12:36:44;;;;;;;11.52;3.67;;;;;;;4.32;89.27;98897.69;5016359;28;20029;-76
2021/12/05 12:39:15;;;;;;;;;;;;;;;4.32;89.79;98900.31;5027998;22;20434;-85
2021/12/05 12:41:42;;;;;;;8.60;4.20;;;;;;;4.30;90.81;98891.56;5039912;28;19970;-86
2021/12/05 12:44:08;;;;;;;5.95;2.22;;;;;;;4.41;89.69;98899.19;5040737;28;20029;-85
2021/12/05 12:46:50;;;;;;;5.68;2.03;;;;;;;4.40;89.10;98901.88;5039695;28;20033;-85
2021/12/05 12:49:15;;;;;;;10.30;2.47;;;;;;;4.45;89.08;98900.88;5039905;28;20023;-85
2021/12/05 12:51:45;;;;;;;13.30;2.60;;;;;;;4.36;89.17;98909.03;5041331;28;20057;-85
2021/12/05 12:54:50;;;;;;;9.57;2.53;;;;;;;4.30;89.74;98918.00;5040697;28;20017;-86
2021/12/05 12:57:39;;;;;;;6.40;2.05;;;;;;;4.34;90.43;98917.00;5022681;28;20095;-85
2021/12/05 13:00:11;;;;;;;7.22;2.45;;;;;;;4.36;90.37;98912.53;5039277;28;20027;-85
2021/12/05 13:11:05;;;;;;;6.30;1.90;;;;;;;4.48;90.03;98921.06;5059940;28;20059;-86
2021/12/05 13:13:32;;;;;;;;;;;;;;;4.48;88.61;98926.34;5042824;28;20516;-86
2021/12/05 13:16:09;;;;;;;7.05;2.30;;;;;;;4.55;87.87;98927.03;5047761;28;19913;-85
2021/12/05 13:18:36;;;;;;;8.02;2.10;;;;;;;4.52;88.31;98928.00;5042179;28;20142;-86
2021/12/05 13:21:17;;;;;;;7.78;3.22;;;;;;;4.51;89.14;98922.75;5037531;28;20020;-86
2021/12/05 13:23:48;;;;;;;8.52;2.63;;;;;;;4.49;88.76;98930.72;5037209;28;20070;-86
2021/12/05 13:26:24;;;;;;;8.90;1.77;;;;;;;4.46;88.93;98939.59;5045571;28;20029;-86
2021/12/05 13:29:11;;;;;;;9.32;2.88;;;;;;;4.49;89.63;98941.28;5039627;28;20489;-85
2021/12/05 13:31:45;;;;;;;6.55;2.33;;;;;;;4.51;89.28;98946.56;5037802;28;20032;-85
2021/12/05 13:34:29;;;;;;;5.93;2.13;;;;;;;4.55;88.63;98948.19;5037168;28;20104;-85
2021/12/05 13:37:05;;;;;;;8.53;2.13;;;;;;;4.49;89.69;98949.22;5037201;28;20082;-84
2021/12/05 13:39:52;;;;;;;5.93;2.15;;;;;;;4.50;88.98;98945.69;5037012;28;20297;-85
2021/12/05 13:42:34;;;;;;;8.02;2.10;;;;;;;4.48;90.26;98947.50;5037599;28;20031;-85
2021/12/05 13:45:06;;;;;;;7.40;1.80;;;;;;;4.53;89.83;98950.00;5036911;28;20460;-84
2021/12/05 13:47:33;;;;;;;4.40;1.90;;;;;;;4.53;88.87;98953.53;5036755;28;20036;-85
2021/12/05 13:50:18;;;;;;;7.53;1.95;;;;;;;4.42;87.21;98960.88;5036885;28;20025;-85
2021/12/05 13:52:46;;;;;;;5.00;1.50;;;;;;;4.44;88.10;98957.28;5037289;28;20488;-85
2021/12/05 13:55:31;;;;;;;8.90;1.77;;;;;;;4.51;88.17;98967.69;5037370;28;20025;-85
2021/12/05 13:58:43;;;;;;;5.22;2.42;;;;;;;4.58;88.91;98967.50;5043160;28;20572;-85
2021/12/05 14:01:15;;;;;;;5.00;3.58;;;;;;;4.57;88.33;98968.38;5038567;28;20111;-85
2021/12/05 14:04:08;;;;;;;6.70;2.00;;;;;;;4.47;87.63;98967.78;5038150;28;20021;-85
2021/12/05 14:06:47;;;;;;;6.13;1.63;;;;;;;4.45;89.06;98977.53;5037961;28;20397;-84
2021/12/05 14:09:27;;;;;;;5.45;1.98;;;;;;;4.40;88.22;98983.81;5036331;28;20025;-84
2021/12/05 14:11:55;;;;;;;5.63;2.33;;;;;;;4.36;88.79;98981.25;5036598;28;20025;-85
2021/12/05 14:14:34;;;;;;;8.10;1.73;;;;;;;4.31;89.51;98993.72;5037326;28;20492;-84
2021/12/05 14:17:03;;;;;;;4.25;1.35;;;;;;;4.33;90.35;98989.25;5038289;28;20027;-84
2021/12/05 14:19:32;;;;;;;9.57;1.95;;;;;;;4.32;90.10;98990.19;5039839;28;20163;-83
2021/12/05 14:22:00;;;;;;;9.45;1.75;;;;;;;4.31;90.00;99001.66;5041316;28;20108;-84
2021/12/05 14:24:29;;;;;;;9.77;2.33;;;;;;;4.28;90.20;99004.34;5058754;28;20013;-85
2021/12/05 14:26:58;;;;;;;10.82;1.98;;;;;;;4.26;90.42;99006.19;5041514;28;20024;-84
2021/12/05 14:29:27;;;;;;;5.90;1.80;;;;;;;4.27;90.00;99013.22;5040879;28;20424;-84
2021/12/05 14:31:58;;;;;;;5.40;2.17;;;;;;;4.26;90.45;99022.03;5041367;28;20021;-83
2021/12/05 14:34:24;;;;;;;8.45;2.47;;;;;;;4.24;90.40;99023.84;5040861;28;20390;-84
2021/12/05 14:36:59;;;;;;;4.03;1.88;;;;;;;4.23;90.70;99028.25;5041905;28;20036;-84
2021/12/05 14:39:29;;;;;;;6.32;1.98;;;;;;;4.23;92.01;99037.94;5041810;28;20025;-85
2021/12/05 14:42:05;;;;;;;6.97;2.13;;;;;;;4.22;93.17;99049.44;5041166;28;20025;-83
2021/12/05 14:44:35;;;;;;;6.90;2.38;;;;;;;4.21;92.95;99055.63;5040726;28;20021;-84
2021/12/05 14:47:22;;;;;;;5.63;2.40;;;;;;;4.19;93.08;99058.31;5057910;28;20023;-84
2021/12/05 14:49:54;;;;;;;14.23;4.28;;;;;;;4.16;94.04;99057.50;5040620;28;20178;-84
2021/12/05 14:52:31;;;;;;;13.00;5.82;;;;;;;4.12;92.68;99062.00;5057705;28;20552;-84
2021/12/05 14:54:58;;;;;;;64.45;25.13;;;;;;;4.05;91.83;99069.19;5040233;28;20021;-84
2021/12/05 14:57:31;;;;;;;52.58;19.95;;;;;;;4.02;92.47;99066.66;5039982;28;20429;-85
2021/12/05 15:00:21;;;;;;;27.42;10.57;;;;;;;4.01;92.49;99076.34;5041319;28;20052;-84
2021/12/05 15:02:47;;;;;;;19.15;8.35;;;;;;;4.00;93.36;99076.34;5040420;28;20025;-84
2021/12/05 15:05:17;;;;;;;11.15;5.95;;;;;;;3.97;93.97;99073.81;5040211;28;20024;-84
2021/12/05 15:07:44;;;;;;;19.67;12.18;;;;;;;3.94;94.46;99084.44;5040099;28;20126;-84
2021/12/05 15:10:10;;;;;;;8.88;6.05;;;;;;;3.94;94.79;99084.44;5040174;28;20070;-85
2021/12/05 15:12:36;;;;;;;7.45;3.55;;;;;;;3.91;95.06;99086.25;5040497;28;20032;-83
2021/12/05 15:15:09;;;;;;;11.30;3.53;;;;;;;3.88;95.86;99098.63;5039880;28;20017;-83
2021/12/05 15:17:38;;;;;;;5.50;3.00;;;;;;;3.87;96.21;99092.47;5039501;28;20477;-84
2021/12/05 15:20:07;;;;;;;8.35;5.13;;;;;;;3.85;97.00;99091.66;5040185;28;20039;-83
2021/12/05 15:22:33;;;;;;;8.30;4.50;;;;;;;3.82;96.86;99102.25;5040031;28;20025;-84
2021/12/05 15:25:02;;;;;;;9.68;4.50;;;;;;;3.77;96.92;99098.84;5040382;28;20090;-83
2021/12/05 15:27:33;;;;;;;8.70;3.85;;;;;;;3.74;97.51;99109.47;5039637;28;20079;-84
2021/12/05 15:30:06;;;;;;;8.32;3.97;;;;;;;3.70;97.92;99103.41;5039149;28;20024;-84
2021/12/05 15:32:32;;;;;;;11.35;4.20;;;;;;;3.67;98.83;99114.91;5057620;28;20029;-85
2021/12/05 15:35:07;;;;;;;10.38;4.18;;;;;;;3.64;99.55;99120.22;5040662;28;20035;-84
2021/12/05 15:37:33;;;;;;;10.05;4.30;;;;;;;3.60;100.00;99118.56;5040719;28;20064;-84
2021/12/05 15:43:50;;;;;;;10.07;4.72;;;;;;;3.39;99.80;99136.56;5052326;28;20032;-86
2021/12/05 15:46:58;;;;;;;11.90;5.50;;;;;;;3.31;100.00;99141.97;5041509;28;20021;-84
2021/12/05 15:50:06;;;;;;;8.57;4.03;;;;;;;3.20;100.00;99147.44;5041919;28;20025;-85
2021/12/05 15:52:45;;;;;;;9.02;4.15;;;;;;;3.16;100.00;99151.06;5042598;28;20027;-84
2021/12/05 15:55:46;;;;;;;7.78;4.05;;;;;;;3.17;100.00;99152.78;5047031;28;20386;-84
2021/12/05 15:58:24;;;;;;;7.68;4.13;;;;;;;3.15;100.00;99151.94;5044684;28;20045;-88
2021/12/05 16:01:11;;;;;;;9.00;4.30;;;;;;;2.98;100.00;99150.47;5039261;28;20087;-85
2021/12/05 16:03:47;;;;;;;10.25;4.95;;;;;;;2.96;100.00;99154.91;5041986;28;20470;-85
2021/12/05 16:06:14;;;;;;;9.43;5.07;;;;;;;2.98;100.00;99152.25;5041769;28;20032;-84
2021/12/05 16:08:43;;;;;;;9.55;4.05;;;;;;;2.98;100.00;99162.78;5056431;28;20028;-85
2021/12/05 16:11:14;;;;;;;13.68;5.25;;;;;;;2.97;100.00;99167.19;5039391;28;20016;-83
2021/12/05 16:13:42;;;;;;;12.30;5.30;;;;;;;3.01;100.00;99171.53;5039204;28;20555;-84
2021/12/05 16:16:13;;;;;;;11.23;6.15;;;;;;;3.00;100.00;99172.41;5040532;28;20058;-83
2021/12/05 16:18:41;;;;;;;13.55;6.88;;;;;;;3.01;100.00;99178.56;5057755;28;20028;-84
2021/12/05 16:21:19;;;;;;;13.55;6.25;;;;;;;2.98;100.00;99184.75;5039358;28;20079;-83
2021/12/05 16:23:45;;;;;;;9.70;5.68;;;;;;;2.96;100.00;99186.56;5039518;28;20508;-84
2021/12/05 16:26:10;;;;;;;12.98;5.85;;;;;;;2.97;100.00;99193.56;5040201;28;20120;-83
2021/12/05 16:28:48;;;;;;;10.88;5.78;;;;;;;2.94;100.00;99204.16;5057746;28;20032;-85
2021/12/05 16:31:18;;;;;;;10.25;5.63;;;;;;;2.94;100.00;99204.16;5039204;28;20120;-84
2021/12/05 16:33:54;;;;;;;12.50;5.90;;;;;;;2.92;100.00;99211.22;5039182;28;20041;-84
2021/12/05 16:36:21;;;;;;;13.68;7.25;;;;;;;2.96;100.00;99207.66;5058539;28;20084;-84
2021/12/05 16:38:51;;;;;;;14.50;6.60;;;;;;;2.94;100.00;99208.59;5039572;28;20051;-83
2021/12/05 16:41:28;;;;;;;14.98;8.27;;;;;;;2.94;100.00;99209.44;5038225;28;20053;-84
2021/12/05 16:44:10;;;;;;;13.80;7.90;;;;;;;2.93;100.00;99209.47;5039045;28;20025;-83
2021/12/05 16:46:42;;;;;;;12.60;6.97;;;;;;;2.93;100.00;99212.97;5038507;28;20028;-83
2021/12/05 16:49:20;;;;;;;15.60;7.45;;;;;;;2.93;100.00;99210.34;5038591;28;20035;-85
2021/12/05 16:51:52;;;;;;;14.20;6.90;;;;;;;2.89;100.00;99217.41;5039537;28;20021;-84
2021/12/05 16:54:23;;;;;;;29.98;6.22;;;;;;;2.85;100.00;99215.72;5038699;28;20082;-84
2021/12/05 16:56:56;;;;;;;12.10;6.63;;;;;;;2.78;100.00;99228.13;5038927;28;20025;-84
2021/12/05 16:59:38;;;;;;;13.68;7.00;;;;;;;2.81;100.00;99234.28;5038789;28;20028;-81